sensor_id;sensor_type;location;lat;lon;timestamp;pressure;altitude;pressure_sealevel;temperature;humidity
32873;BME280;19224;52.462;16.898;2023-04-04T00:00:52;101570.84;;;-0.26;95.70
32873;BME280;19224;52.462;16.898;2023-04-04T00:03:24;101573.77;;;-0.34;95.80
32873;BME280;19224;52.462;16.898;2023-04-04T00:05:55;101569.42;;;-0.32;95.95
32873;BME280;19224;52.462;16.898;2023-04-04T00:08:26;101574.86;;;-0.23;95.80
32873;BME280;19224;52.462;16.898;2023-04-04T00:11:00;101564.91;;;-0.36;96.63
32873;BME280;19224;52.462;16.898;2023-04-04T00:13:31;101559.57;;;-0.39;96.70
32873;BME280;19224;52.462;16.898;2023-04-04T00:16:02;101558.38;;;-0.33;96.58
32873;BME280;19224;52.462;16.898;2023-04-04T00:18:33;101553.41;;;-0.38;96.77
32873;BME280;19224;52.462;16.898;2023-04-04T00:21:04;101560.02;;;-0.38;97.00
32873;BME280;19224;52.462;16.898;2023-04-04T00:23:34;101558.16;;;-0.43;97.38
32873;BME280;19224;52.462;16.898;2023-04-04T00:26:05;101555.55;;;-0.42;98.03
32873;BME280;19224;52.462;16.898;2023-04-04T00:28:35;101555.59;;;-0.39;97.86
32873;BME280;19224;52.462;16.898;2023-04-04T00:31:05;101554.69;;;-0.39;97.86
32873;BME280;19224;52.462;16.898;2023-04-04T00:33:36;101548.07;;;-0.41;98.23
32873;BME280;19224;52.462;16.898;2023-04-04T00:36:06;101551.04;;;-0.46;99.20
32873;BME280;19224;52.462;16.898;2023-04-04T00:38:37;101554.31;;;-0.37;99.35
32873;BME280;19224;52.462;16.898;2023-04-04T00:41:07;101552.69;;;-0.29;98.99
32873;BME280;19224;52.462;16.898;2023-04-04T00:43:39;101538.54;;;-0.31;99.64
32873;BME280;19224;52.462;16.898;2023-04-04T00:46:09;101539.45;;;-0.31;100.00
32873;BME280;19224;52.462;16.898;2023-04-04T00:48:42;101546.98;;;-0.29;100.00
32873;BME280;19224;52.462;16.898;2023-04-04T00:51:13;101546.48;;;-0.31;100.00
32873;BME280;19224;52.462;16.898;2023-04-04T00:53:46;101550.80;;;-0.36;100.00
32873;BME280;19224;52.462;16.898;2023-04-04T00:56:17;101545.47;;;-0.38;100.00
32873;BME280;19224;52.462;16.898;2023-04-04T00:58:48;101540.55;;;-0.43;100.00
32873;BME280;19224;52.462;16.898;2023-04-04T01:01:19;101545.75;;;-0.46;100.00
32873;BME280;19224;52.462;16.898;2023-04-04T01:03:50;101541.86;;;-0.43;100.00
32873;BME280;19224;52.462;16.898;2023-04-04T01:06:20;101544.73;;;-0.31;100.00
32873;BME280;19224;52.462;16.898;2023-04-04T01:08:51;101546.69;;;-0.21;100.00
32873;BME280;19224;52.462;16.898;2023-04-04T01:11:23;101546.61;;;-0.24;100.00
32873;BME280;19224;52.462;16.898;2023-04-04T01:13:53;101543.27;;;-0.14;100.00
32873;BME280;19224;52.462;16.898;2023-04-04T01:16:24;101540.30;;;-0.09;100.00
32873;BME280;19224;52.462;16.898;2023-04-04T01:18:56;101544.80;;;-0.02;100.00
32873;BME280;19224;52.462;16.898;2023-04-04T01:21:27;101544.77;;;-0.05;100.00
32873;BME280;19224;52.462;16.898;2023-04-04T01:24:04;101539.22;;;0.06;100.00
32873;BME280;19224;52.462;16.898;2023-04-04T01:26:34;101536.20;;;0.11;100.00
32873;BME280;19224;52.462;16.898;2023-04-04T01:29:05;101533.67;;;0.17;100.00
32873;BME280;19224;52.462;16.898;2023-04-04T01:31:39;101530.61;;;0.19;100.00
32873;BME280;19224;52.462;16.898;2023-04-04T01:37:34;101523.57;;;0.21;99.97
32873;BME280;19224;52.462;16.898;2023-04-04T01:40:23;101524.52;;;0.23;99.55
32873;BME280;19224;52.462;16.898;2023-04-04T01:42:54;101514.11;;;0.35;99.61
32873;BME280;19224;52.462;16.898;2023-04-04T01:45:25;101507.14;;;0.43;98.31
32873;BME280;19224;52.462;16.898;2023-04-04T01:47:57;101506.09;;;0.32;98.58
32873;BME280;19224;52.462;16.898;2023-04-04T01:50:28;101509.30;;;0.39;98.27
32873;BME280;19224;52.462;16.898;2023-04-04T01:52:58;101505.75;;;0.37;98.47
32873;BME280;19224;52.462;16.898;2023-04-04T01:55:29;101507.11;;;0.40;98.37
32873;BME280;19224;52.462;16.898;2023-04-04T01:58:00;101504.87;;;0.38;98.22
32873;BME280;19224;52.462;16.898;2023-04-04T02:00:30;101501.70;;;0.32;98.81
32873;BME280;19224;52.462;16.898;2023-04-04T02:03:00;101498.29;;;0.41;97.15
32873;BME280;19224;52.462;16.898;2023-04-04T02:05:32;101500.63;;;0.49;96.07
32873;BME280;19224;52.462;16.898;2023-04-04T02:08:02;101493.86;;;0.40;95.23
32873;BME280;19224;52.462;16.898;2023-04-04T02:10:33;101489.47;;;0.42;94.19
32873;BME280;19224;52.462;16.898;2023-04-04T02:13:03;101489.19;;;0.53;94.51
32873;BME280;19224;52.462;16.898;2023-04-04T02:15:35;101488.59;;;0.43;94.23
32873;BME280;19224;52.462;16.898;2023-04-04T02:18:05;101485.08;;;0.44;94.68
32873;BME280;19224;52.462;16.898;2023-04-04T02:20:36;101489.61;;;0.51;93.23
32873;BME280;19224;52.462;16.898;2023-04-04T02:23:06;101487.77;;;0.45;94.06
32873;BME280;19224;52.462;16.898;2023-04-04T02:25:37;101487.31;;;0.44;94.46
32873;BME280;19224;52.462;16.898;2023-04-04T02:28:07;101489.26;;;0.56;93.60
32873;BME280;19224;52.462;16.898;2023-04-04T02:30:39;101489.12;;;0.48;92.98
32873;BME280;19224;52.462;16.898;2023-04-04T02:33:10;101485.73;;;0.57;93.11
32873;BME280;19224;52.462;16.898;2023-04-04T02:35:40;101485.38;;;0.63;92.41
32873;BME280;19224;52.462;16.898;2023-04-04T02:38:10;101479.28;;;0.69;91.87
32873;BME280;19224;52.462;16.898;2023-04-04T02:40:41;101470.52;;;0.76;90.90
32873;BME280;19224;52.462;16.898;2023-04-04T02:43:13;101473.45;;;0.65;91.12
32873;BME280;19224;52.462;16.898;2023-04-04T02:45:44;101474.27;;;0.58;90.46
32873;BME280;19224;52.462;16.898;2023-04-04T02:48:14;101467.64;;;0.58;89.65
32873;BME280;19224;52.462;16.898;2023-04-04T02:50:46;101467.57;;;0.55;87.56
32873;BME280;19224;52.462;16.898;2023-04-04T02:53:16;101458.84;;;0.62;88.71
32873;BME280;19224;52.462;16.898;2023-04-04T02:55:47;101457.97;;;0.63;88.01
32873;BME280;19224;52.462;16.898;2023-04-04T02:58:17;101452.41;;;0.77;88.05
32873;BME280;19224;52.462;16.898;2023-04-04T03:00:55;101456.75;;;0.69;87.19
32873;BME280;19224;52.462;16.898;2023-04-04T03:03:26;101453.73;;;0.77;87.73
32873;BME280;19224;52.462;16.898;2023-04-04T03:05:57;101457.68;;;0.74;86.95
32873;BME280;19224;52.462;16.898;2023-04-04T03:08:28;101453.70;;;0.74;86.92
32873;BME280;19224;52.462;16.898;2023-04-04T03:10:58;101461.23;;;0.76;86.49
32873;BME280;19224;52.462;16.898;2023-04-04T03:13:29;101457.41;;;0.88;86.80
32873;BME280;19224;52.462;16.898;2023-04-04T03:16:02;101458.52;;;1.05;86.08
32873;BME280;19224;52.462;16.898;2023-04-04T03:18:34;101465.44;;;0.91;85.38
32873;BME280;19224;52.462;16.898;2023-04-04T03:21:05;101451.15;;;0.80;85.49
32873;BME280;19224;52.462;16.898;2023-04-04T03:23:35;101452.86;;;0.76;86.03
32873;BME280;19224;52.462;16.898;2023-04-04T03:26:06;101455.30;;;0.95;86.07
32873;BME280;19224;52.462;16.898;2023-04-04T03:28:37;101451.36;;;0.98;85.85
32873;BME280;19224;52.462;16.898;2023-04-04T03:31:08;101444.67;;;0.93;86.57
32873;BME280;19224;52.462;16.898;2023-04-04T03:33:38;101441.48;;;0.85;87.21
32873;BME280;19224;52.462;16.898;2023-04-04T03:36:14;101441.42;;;0.79;88.28
32873;BME280;19224;52.462;16.898;2023-04-04T03:38:44;101441.11;;;0.90;88.98
32873;BME280;19224;52.462;16.898;2023-04-04T03:41:15;101447.11;;;0.77;88.98
32873;BME280;19224;52.462;16.898;2023-04-04T03:43:45;101440.23;;;0.56;90.51
32873;BME280;19224;52.462;16.898;2023-04-04T03:46:16;101441.14;;;0.59;91.50
32873;BME280;19224;52.462;16.898;2023-04-04T03:48:47;101438.45;;;0.56;92.24
32873;BME280;19224;52.462;16.898;2023-04-04T03:51:25;101437.84;;;0.43;94.05
32873;BME280;19224;52.462;16.898;2023-04-04T03:53:59;101430.34;;;0.44;94.95
32873;BME280;19224;52.462;16.898;2023-04-04T03:56:31;101436.55;;;0.45;95.72
32873;BME280;19224;52.462;16.898;2023-04-04T03:59:01;101431.56;;;0.37;97.15
32873;BME280;19224;52.462;16.898;2023-04-04T04:01:32;101424.10;;;0.41;98.42
32873;BME280;19224;52.462;16.898;2023-04-04T04:04:03;101430.14;;;0.31;100.00
32873;BME280;19224;52.462;16.898;2023-04-04T04:06:33;101420.94;;;0.34;100.00
32873;BME280;19224;52.462;16.898;2023-04-04T04:09:04;101419.61;;;0.34;100.00
32873;BME280;19224;52.462;16.898;2023-04-04T04:11:34;101422.19;;;0.31;100.00
32873;BME280;19224;52.462;16.898;2023-04-04T04:14:05;101420.28;;;0.21;100.00
32873;BME280;19224;52.462;16.898;2023-04-04T04:16:40;101430.00;;;0.22;100.00
32873;BME280;19224;52.462;16.898;2023-04-04T04:19:11;101429.93;;;0.16;100.00
32873;BME280;19224;52.462;16.898;2023-04-04T04:21:41;101433.34;;;0.09;100.00
32873;BME280;19224;52.462;16.898;2023-04-04T04:24:12;101436.52;;;0.14;100.00
32873;BME280;19224;52.462;16.898;2023-04-04T04:26:42;101431.48;;;0.03;100.00
32873;BME280;19224;52.462;16.898;2023-04-04T04:29:13;101432.05;;;0.10;100.00
32873;BME280;19224;52.462;16.898;2023-04-04T04:31:44;101435.19;;;0.14;100.00
32873;BME280;19224;52.462;16.898;2023-04-04T04:34:15;101431.94;;;0.03;100.00
32873;BME280;19224;52.462;16.898;2023-04-04T04:36:46;101434.66;;;0.07;100.00
32873;BME280;19224;52.462;16.898;2023-04-04T04:39:16;101429.71;;;0.01;100.00
32873;BME280;19224;52.462;16.898;2023-04-04T04:41:46;101425.59;;;-0.07;100.00
32873;BME280;19224;52.462;16.898;2023-04-04T04:44:17;101424.19;;;-0.12;100.00
32873;BME280;19224;52.462;16.898;2023-04-04T04:46:47;101430.92;;;-0.05;100.00
32873;BME280;19224;52.462;16.898;2023-04-04T04:49:18;101430.02;;;-0.07;100.00
32873;BME280;19224;52.462;16.898;2023-04-04T04:51:48;101431.03;;;0.01;100.00
32873;BME280;19224;52.462;16.898;2023-04-04T04:54:19;101442.30;;;0.17;100.00
32873;BME280;19224;52.462;16.898;2023-04-04T04:56:50;101440.23;;;-0.02;100.00
32873;BME280;19224;52.462;16.898;2023-04-04T04:59:20;101435.08;;;0.07;100.00
32873;BME280;19224;52.462;16.898;2023-04-04T05:01:50;101437.11;;;0.23;100.00
32873;BME280;19224;52.462;16.898;2023-04-04T05:04:21;101438.89;;;0.24;100.00
32873;BME280;19224;52.462;16.898;2023-04-04T05:06:51;101447.70;;;0.24;100.00
32873;BME280;19224;52.462;16.898;2023-04-04T05:09:22;101438.16;;;0.34;100.00
32873;BME280;19224;52.462;16.898;2023-04-04T05:11:52;101441.19;;;0.30;100.00
32873;BME280;19224;52.462;16.898;2023-04-04T05:14:23;101439.55;;;0.11;100.00
32873;BME280;19224;52.462;16.898;2023-04-04T05:16:53;101443.91;;;0.35;100.00
32873;BME280;19224;52.462;16.898;2023-04-04T05:19:24;101445.30;;;0.41;100.00
32873;BME280;19224;52.462;16.898;2023-04-04T05:21:54;101443.20;;;0.48;100.00
32873;BME280;19224;52.462;16.898;2023-04-04T05:24:24;101444.95;;;0.46;100.00
32873;BME280;19224;52.462;16.898;2023-04-04T05:26:55;101442.09;;;0.32;100.00
32873;BME280;19224;52.462;16.898;2023-04-04T05:29:25;101443.77;;;0.27;100.00
32873;BME280;19224;52.462;16.898;2023-04-04T05:31:55;101443.48;;;0.38;100.00
32873;BME280;19224;52.462;16.898;2023-04-04T05:34:26;101444.01;;;0.44;100.00
32873;BME280;19224;52.462;16.898;2023-04-04T05:36:56;101445.41;;;0.48;100.00
32873;BME280;19224;52.462;16.898;2023-04-04T05:39:26;101448.22;;;0.59;100.00
32873;BME280;19224;52.462;16.898;2023-04-04T05:41:57;101446.56;;;0.67;100.00
32873;BME280;19224;52.462;16.898;2023-04-04T05:44:27;101445.48;;;0.88;100.00
32873;BME280;19224;52.462;16.898;2023-04-04T05:46:57;101444.94;;;0.79;100.00
32873;BME280;19224;52.462;16.898;2023-04-04T05:49:27;101444.40;;;0.71;100.00
32873;BME280;19224;52.462;16.898;2023-04-04T05:51:58;101447.95;;;0.73;100.00
32873;BME280;19224;52.462;16.898;2023-04-04T05:54:28;101447.32;;;0.92;100.00
32873;BME280;19224;52.462;16.898;2023-04-04T05:56:59;101448.22;;;0.94;100.00
32873;BME280;19224;52.462;16.898;2023-04-04T05:59:29;101459.94;;;1.12;100.00
32873;BME280;19224;52.462;16.898;2023-04-04T06:01:59;101461.42;;;1.26;100.00
32873;BME280;19224;52.462;16.898;2023-04-04T06:04:29;101466.53;;;1.09;100.00
32873;BME280;19224;52.462;16.898;2023-04-04T06:07:00;101450.84;;;1.29;100.00
32873;BME280;19224;52.462;16.898;2023-04-04T06:09:31;101452.50;;;1.21;100.00
32873;BME280;19224;52.462;16.898;2023-04-04T06:12:02;101452.64;;;1.33;100.00
32873;BME280;19224;52.462;16.898;2023-04-04T06:14:32;101451.28;;;1.30;100.00
32873;BME280;19224;52.462;16.898;2023-04-04T06:17:04;101441.95;;;1.24;100.00
32873;BME280;19224;52.462;16.898;2023-04-04T06:19:34;101450.03;;;1.37;100.00
32873;BME280;19224;52.462;16.898;2023-04-04T06:22:05;101452.24;;;1.35;100.00
32873;BME280;19224;52.462;16.898;2023-04-04T06:24:35;101441.77;;;1.50;100.00
32873;BME280;19224;52.462;16.898;2023-04-04T06:27:05;101439.54;;;1.49;100.00
32873;BME280;19224;52.462;16.898;2023-04-04T06:29:36;101440.00;;;1.49;100.00
32873;BME280;19224;52.462;16.898;2023-04-04T06:32:07;101435.04;;;1.41;100.00
32873;BME280;19224;52.462;16.898;2023-04-04T06:34:37;101440.69;;;1.75;100.00
32873;BME280;19224;52.462;16.898;2023-04-04T06:37:08;101430.67;;;1.96;100.00
32873;BME280;19224;52.462;16.898;2023-04-04T06:39:38;101435.61;;;2.05;100.00
32873;BME280;19224;52.462;16.898;2023-04-04T06:42:08;101427.82;;;2.30;100.00
32873;BME280;19224;52.462;16.898;2023-04-04T06:44:40;101424.34;;;2.43;99.79
32873;BME280;19224;52.462;16.898;2023-04-04T06:47:10;101430.64;;;2.56;99.17
32873;BME280;19224;52.462;16.898;2023-04-04T06:49:40;101440.60;;;2.19;98.11
32873;BME280;19224;52.462;16.898;2023-04-04T06:52:11;101439.34;;;2.32;97.03
32873;BME280;19224;52.462;16.898;2023-04-04T06:54:41;101432.77;;;2.41;94.79
32873;BME280;19224;52.462;16.898;2023-04-04T06:57:12;101433.19;;;2.36;94.11
32873;BME280;19224;52.462;16.898;2023-04-04T06:59:42;101442.05;;;2.38;93.49
32873;BME280;19224;52.462;16.898;2023-04-04T07:02:12;101448.20;;;2.31;93.73
32873;BME280;19224;52.462;16.898;2023-04-04T07:04:43;101438.61;;;2.53;92.16
32873;BME280;19224;52.462;16.898;2023-04-04T07:07:15;101434.20;;;2.59;92.38
32873;BME280;19224;52.462;16.898;2023-04-04T07:09:45;101434.28;;;2.73;93.06
32873;BME280;19224;52.462;16.898;2023-04-04T07:12:18;101436.14;;;2.90;91.04
32873;BME280;19224;52.462;16.898;2023-04-04T07:14:49;101428.92;;;2.64;91.24
32873;BME280;19224;52.462;16.898;2023-04-04T07:17:19;101424.89;;;2.61;91.35
32873;BME280;19224;52.462;16.898;2023-04-04T07:19:50;101423.02;;;2.43;93.98
32873;BME280;19224;52.462;16.898;2023-04-04T07:22:20;101423.59;;;2.64;87.33
32873;BME280;19224;52.462;16.898;2023-04-04T07:24:50;101425.09;;;3.04;85.96
32873;BME280;19224;52.462;16.898;2023-04-04T07:27:20;101419.42;;;3.39;83.28
32873;BME280;19224;52.462;16.898;2023-04-04T07:29:50;101420.28;;;3.26;80.92
32873;BME280;19224;52.462;16.898;2023-04-04T07:32:21;101418.05;;;3.17;79.10
32873;BME280;19224;52.462;16.898;2023-04-04T07:34:51;101412.27;;;3.14;78.97
32873;BME280;19224;52.462;16.898;2023-04-04T07:37:21;101411.91;;;3.61;91.19
32873;BME280;19224;52.462;16.898;2023-04-04T07:39:52;101421.23;;;3.85;77.38
32873;BME280;19224;52.462;16.898;2023-04-04T07:42:22;101408.34;;;3.53;69.28
32873;BME280;19224;52.462;16.898;2023-04-04T07:44:53;101415.81;;;3.16;70.45
32873;BME280;19224;52.462;16.898;2023-04-04T07:47:23;101414.89;;;3.08;74.38
32873;BME280;19224;52.462;16.898;2023-04-04T07:49:54;101419.31;;;2.96;78.34
32873;BME280;19224;52.462;16.898;2023-04-04T07:52:25;101413.16;;;3.13;78.41
32873;BME280;19224;52.462;16.898;2023-04-04T07:54:55;101422.90;;;3.13;77.42
32873;BME280;19224;52.462;16.898;2023-04-04T07:57:25;101415.31;;;2.96;77.99
32873;BME280;19224;52.462;16.898;2023-04-04T07:59:55;101419.73;;;2.98;76.21
32873;BME280;19224;52.462;16.898;2023-04-04T08:02:26;101426.42;;;3.01;73.98
32873;BME280;19224;52.462;16.898;2023-04-04T08:04:56;101430.37;;;2.89;76.76
32873;BME280;19224;52.462;16.898;2023-04-04T08:07:26;101428.18;;;2.95;76.38
32873;BME280;19224;52.462;16.898;2023-04-04T08:09:56;101423.70;;;2.85;78.19
32873;BME280;19224;52.462;16.898;2023-04-04T08:12:26;101416.61;;;2.90;77.85
32873;BME280;19224;52.462;16.898;2023-04-04T08:14:57;101409.56;;;3.04;76.22
32873;BME280;19224;52.462;16.898;2023-04-04T08:17:27;101409.61;;;3.20;72.58
32873;BME280;19224;52.462;16.898;2023-04-04T08:19:57;101413.17;;;3.24;72.72
32873;BME280;19224;52.462;16.898;2023-04-04T08:22:28;101414.09;;;3.42;70.71
32873;BME280;19224;52.462;16.898;2023-04-04T08:24:58;101407.80;;;3.04;71.66
32873;BME280;19224;52.462;16.898;2023-04-04T08:27:28;101399.84;;;3.19;71.61
32873;BME280;19224;52.462;16.898;2023-04-04T08:29:59;101406.91;;;3.02;67.01
32873;BME280;19224;52.462;16.898;2023-04-04T08:32:31;101410.46;;;3.10;68.35
32873;BME280;19224;52.462;16.898;2023-04-04T08:35:01;101401.58;;;3.01;68.17
32873;BME280;19224;52.462;16.898;2023-04-04T08:37:32;101403.84;;;3.27;68.70
32873;BME280;19224;52.462;16.898;2023-04-04T08:40:06;101405.20;;;3.22;68.99
32873;BME280;19224;52.462;16.898;2023-04-04T08:42:37;101407.44;;;3.36;69.86
32873;BME280;19224;52.462;16.898;2023-04-04T08:45:10;101401.23;;;3.48;69.50
32873;BME280;19224;52.462;16.898;2023-04-04T08:47:41;101402.56;;;3.55;68.14
32873;BME280;19224;52.462;16.898;2023-04-04T08:50:13;101400.81;;;3.57;67.88
32873;BME280;19224;52.462;16.898;2023-04-04T08:52:43;101392.83;;;3.65;68.46
32873;BME280;19224;52.462;16.898;2023-04-04T08:55:14;101395.47;;;3.87;68.35
32873;BME280;19224;52.462;16.898;2023-04-04T08:57:45;101399.03;;;3.82;68.11
32873;BME280;19224;52.462;16.898;2023-04-04T09:00:16;101393.69;;;3.53;67.56
32873;BME280;19224;52.462;16.898;2023-04-04T09:03:21;101396.80;;;3.66;68.50
32873;BME280;19224;52.462;16.898;2023-04-04T09:05:46;101388.36;;;3.46;68.16
32873;BME280;19224;52.462;16.898;2023-04-04T09:08:18;101402.09;;;3.24;69.01
32873;BME280;19224;52.462;16.898;2023-04-04T09:10:50;101388.31;;;3.17;70.56
32873;BME280;19224;52.462;16.898;2023-04-04T09:13:21;101386.59;;;3.42;70.17
32873;BME280;19224;52.462;16.898;2023-04-04T09:15:53;101386.61;;;3.66;70.00
32873;BME280;19224;52.462;16.898;2023-04-04T09:18:24;101383.51;;;3.69;68.44
32873;BME280;19224;52.462;16.898;2023-04-04T09:20:55;101386.59;;;3.88;68.90
32873;BME280;19224;52.462;16.898;2023-04-04T09:23:25;101386.61;;;3.82;69.41
32873;BME280;19224;52.462;16.898;2023-04-04T09:25:56;101383.95;;;3.87;68.79
32873;BME280;19224;52.462;16.898;2023-04-04T09:28:28;101374.12;;;4.17;69.07
32873;BME280;19224;52.462;16.898;2023-04-04T09:31:02;101371.42;;;4.38;66.51
32873;BME280;19224;52.462;16.898;2023-04-04T09:33:34;101380.73;;;4.41;66.26
32873;BME280;19224;52.462;16.898;2023-04-04T09:36:09;101380.34;;;4.19;65.67
32873;BME280;19224;52.462;16.898;2023-04-04T09:38:41;101381.27;;;4.03;65.80
32873;BME280;19224;52.462;16.898;2023-04-04T09:41:17;101393.72;;;3.76;66.20
32873;BME280;19224;52.462;16.898;2023-04-04T09:43:49;101385.70;;;3.86;66.43
32873;BME280;19224;52.462;16.898;2023-04-04T09:46:20;101382.59;;;3.60;67.14
32873;BME280;19224;52.462;16.898;2023-04-04T09:48:51;101379.52;;;3.69;68.38
32873;BME280;19224;52.462;16.898;2023-04-04T09:51:23;101381.72;;;3.62;66.26
32873;BME280;19224;52.462;16.898;2023-04-04T09:53:53;101381.27;;;3.94;65.31
32873;BME280;19224;52.462;16.898;2023-04-04T09:56:27;101387.04;;;3.95;65.45
32873;BME280;19224;52.462;16.898;2023-04-04T09:58:58;101388.83;;;3.84;66.73
32873;BME280;19224;52.462;16.898;2023-04-04T10:01:32;101389.72;;;3.59;66.10
32873;BME280;19224;52.462;16.898;2023-04-04T10:04:04;101388.38;;;3.67;66.76
32873;BME280;19224;52.462;16.898;2023-04-04T10:06:36;101391.94;;;3.58;65.79
32873;BME280;19224;52.462;16.898;2023-04-04T10:09:08;101388.38;;;3.55;67.63
32873;BME280;19224;52.462;16.898;2023-04-04T10:11:38;101388.80;;;3.54;67.02
32873;BME280;19224;52.462;16.898;2023-04-04T10:14:10;101382.60;;;3.85;65.45
32873;BME280;19224;52.462;16.898;2023-04-04T10:16:44;101384.82;;;4.11;64.71
32873;BME280;19224;52.462;16.898;2023-04-04T10:19:16;101389.25;;;4.06;64.38
32873;BME280;19224;52.462;16.898;2023-04-04T10:21:48;101385.67;;;4.15;64.83
32873;BME280;19224;52.462;16.898;2023-04-04T10:24:19;101387.88;;;4.21;65.06
32873;BME280;19224;52.462;16.898;2023-04-04T10:26:49;101388.77;;;4.29;62.98
32873;BME280;19224;52.462;16.898;2023-04-04T10:29:21;101389.23;;;4.29;61.49
32873;BME280;19224;52.462;16.898;2023-04-04T10:31:58;101391.88;;;4.21;60.94
32873;BME280;19224;52.462;16.898;2023-04-04T10:35:02;101386.58;;;4.05;62.28
32873;BME280;19224;52.462;16.898;2023-04-04T10:37:56;101371.45;;;4.20;61.44
32873;BME280;19224;52.462;16.898;2023-04-04T10:40:32;101376.70;;;4.56;61.41
32873;BME280;19224;52.462;16.898;2023-04-04T10:43:04;101378.88;;;4.64;60.65
32873;BME280;19224;52.462;16.898;2023-04-04T10:45:36;101379.41;;;4.38;61.64
32873;BME280;19224;52.462;16.898;2023-04-04T10:48:11;101364.33;;;4.28;61.60
32873;BME280;19224;52.462;16.898;2023-04-04T10:50:43;101369.64;;;4.37;62.11
32873;BME280;19224;52.462;16.898;2023-04-04T10:53:15;101361.44;;;4.85;61.32
32873;BME280;19224;52.462;16.898;2023-04-04T10:55:47;101361.29;;;5.15;59.71
32873;BME280;19224;52.462;16.898;2023-04-04T10:58:18;101354.07;;;5.29;60.65
32873;BME280;19224;52.462;16.898;2023-04-04T11:00:52;101344.00;;;5.64;60.17
32873;BME280;19224;52.462;16.898;2023-04-04T11:03:24;101344.47;;;5.62;58.25
32873;BME280;19224;52.462;16.898;2023-04-04T11:05:55;101357.59;;;5.37;56.78
32873;BME280;19224;52.462;16.898;2023-04-04T11:08:28;101360.00;;;5.06;58.43
32873;BME280;19224;52.462;16.898;2023-04-04T11:11:00;101357.72;;;5.16;56.54
32873;BME280;19224;52.462;16.898;2023-04-04T11:13:36;101355.84;;;5.31;57.17
32873;BME280;19224;52.462;16.898;2023-04-04T11:16:13;101342.13;;;5.15;57.32
32873;BME280;19224;52.462;16.898;2023-04-04T11:18:46;101342.48;;;5.30;56.47
32873;BME280;19224;52.462;16.898;2023-04-04T11:21:21;101342.37;;;5.48;56.09
32873;BME280;19224;52.462;16.898;2023-04-04T11:26:37;101335.37;;;5.27;54.49
32873;BME280;19224;52.462;16.898;2023-04-04T11:29:11;101328.54;;;5.51;55.44
32873;BME280;19224;52.462;16.898;2023-04-04T11:31:47;101325.22;;;5.73;55.04
32873;BME280;19224;52.462;16.898;2023-04-04T11:34:31;101317.63;;;5.80;54.80
32873;BME280;19224;52.462;16.898;2023-04-04T11:37:15;101320.31;;;5.75;53.79
32873;BME280;19224;52.462;16.898;2023-04-04T11:39:50;101318.36;;;5.42;54.78
32873;BME280;19224;52.462;16.898;2023-04-04T11:42:22;101320.69;;;5.29;55.24
32873;BME280;19224;52.462;16.898;2023-04-04T11:47:31;101298.78;;;5.40;55.16
32873;BME280;19224;52.462;16.898;2023-04-04T11:50:08;101305.72;;;5.63;54.27
32873;BME280;19224;52.462;16.898;2023-04-04T11:52:39;101300.82;;;6.12;53.70
32873;BME280;19224;52.462;16.898;2023-04-04T11:55:18;101292.45;;;6.02;50.56
32873;BME280;19224;52.462;16.898;2023-04-04T11:57:51;101282.02;;;6.18;50.66
32873;BME280;19224;52.462;16.898;2023-04-04T12:00:33;101277.75;;;6.39;50.97
32873;BME280;19224;52.462;16.898;2023-04-04T12:03:10;101284.16;;;6.61;50.78
32873;BME280;19224;52.462;16.898;2023-04-04T12:05:42;101281.18;;;6.50;50.09
32873;BME280;19224;52.462;16.898;2023-04-04T12:08:14;101282.58;;;6.44;51.31
32873;BME280;19224;52.462;16.898;2023-04-04T12:10:46;101280.59;;;6.59;51.34
32873;BME280;19224;52.462;16.898;2023-04-04T12:13:17;101276.14;;;6.60;50.72
32873;BME280;19224;52.462;16.898;2023-04-04T12:15:48;101277.48;;;6.60;50.61
32873;BME280;19224;52.462;16.898;2023-04-04T12:18:21;101271.66;;;6.60;50.88
32873;BME280;19224;52.462;16.898;2023-04-04T12:20:52;101274.75;;;6.63;51.29
32873;BME280;19224;52.462;16.898;2023-04-04T12:23:22;101284.17;;;6.60;50.66
32873;BME280;19224;52.462;16.898;2023-04-04T12:25:54;101280.00;;;6.38;50.45
32873;BME280;19224;52.462;16.898;2023-04-04T12:28:27;101283.53;;;6.01;51.78
32873;BME280;19224;52.462;16.898;2023-04-04T12:30:58;101274.31;;;5.91;54.03
32873;BME280;19224;52.462;16.898;2023-04-04T12:33:33;101273.07;;;5.76;54.10
32873;BME280;19224;52.462;16.898;2023-04-04T12:36:05;101271.57;;;5.46;53.33
32873;BME280;19224;52.462;16.898;2023-04-04T12:38:57;101267.84;;;5.65;53.62
32873;BME280;19224;52.462;16.898;2023-04-04T12:41:28;101264.30;;;6.08;52.27
32873;BME280;19224;52.462;16.898;2023-04-04T12:44:03;101254.41;;;6.14;52.68
32873;BME280;19224;52.462;16.898;2023-04-04T12:46:37;101245.38;;;5.89;53.25
32873;BME280;19224;52.462;16.898;2023-04-04T12:49:10;101246.25;;;5.88;53.34
32873;BME280;19224;52.462;16.898;2023-04-04T12:51:41;101238.08;;;6.03;53.42
32873;BME280;19224;52.462;16.898;2023-04-04T12:54:28;101236.39;;;6.30;53.53
32873;BME280;19224;52.462;16.898;2023-04-04T12:57:02;101227.55;;;6.25;52.74
32873;BME280;19224;52.462;16.898;2023-04-04T12:59:36;101221.47;;;6.77;51.75
32873;BME280;19224;52.462;16.898;2023-04-04T13:02:11;101216.09;;;7.33;50.33
32873;BME280;19224;52.462;16.898;2023-04-04T13:04:50;101222.30;;;7.60;47.16
32873;BME280;19224;52.462;16.898;2023-04-04T13:07:34;101214.95;;;6.95;47.93
32873;BME280;19224;52.462;16.898;2023-04-04T13:10:02;101218.91;;;6.98;47.63
32873;BME280;19224;52.462;16.898;2023-04-04T13:12:54;101219.33;;;6.72;47.01
32873;BME280;19224;52.462;16.898;2023-04-04T13:15:50;101216.75;;;6.34;47.66
32873;BME280;19224;52.462;16.898;2023-04-04T13:18:25;101208.57;;;6.09;48.38